createdAt,value
2023-12-30T00:01:31.119Z,8.31
2023-12-30T00:03:58.980Z,8.42
2023-12-30T00:06:29.530Z,8.46
2023-12-30T00:08:57.511Z,8.39
2023-12-30T00:11:25.194Z,8.38
2023-12-30T00:13:53.104Z,8.36
2023-12-30T00:16:21.217Z,8.45
2023-12-30T00:18:50.294Z,8.42
2023-12-30T00:21:20.385Z,8.33
2023-12-30T00:23:49.605Z,8.41
2023-12-30T00:26:23.638Z,8.42
2023-12-30T00:28:51.894Z,8.18
2023-12-30T00:31:24.134Z,8.22
2023-12-30T00:33:53.463Z,8.31
2023-12-30T00:36:21.152Z,8.23
2023-12-30T00:38:48.945Z,8.32
2023-12-30T00:41:16.649Z,8.26
2023-12-30T00:43:44.679Z,8.27
2023-12-30T00:46:12.671Z,8.50
2023-12-30T00:48:40.314Z,8.36
2023-12-30T00:51:09.381Z,8.36
2023-12-30T00:53:37.319Z,8.18
2023-12-30T00:56:05.469Z,8.11
2023-12-30T00:58:33.206Z,8.21
2023-12-30T01:01:01.312Z,8.15
2023-12-30T01:03:29.071Z,8.18
2023-12-30T01:05:56.882Z,8.17
2023-12-30T01:08:24.995Z,8.28
2023-12-30T01:10:52.778Z,8.34
2023-12-30T01:13:20.689Z,8.26
2023-12-30T01:15:48.463Z,8.33
2023-12-30T01:18:16.263Z,8.19
2023-12-30T01:20:44.189Z,8.30
2023-12-30T01:23:12.060Z,8.13
2023-12-30T01:25:43.862Z,8.16
2023-12-30T01:28:11.713Z,8.28
2023-12-30T01:30:39.486Z,8.37
2023-12-30T01:33:07.544Z,8.09
2023-12-30T01:35:35.926Z,8.21
2023-12-30T01:38:06.030Z,8.21
2023-12-30T01:40:34.716Z,8.37
2023-12-30T01:43:06.055Z,8.15
2023-12-30T01:45:33.985Z,8.14
2023-12-30T01:48:03.303Z,8.21
2023-12-30T01:50:31.417Z,7.99
2023-12-30T01:52:59.301Z,8.07
2023-12-30T01:55:27.352Z,8.34
2023-12-30T01:57:55.044Z,8.27
2023-12-30T02:00:25.790Z,8.25
2023-12-30T02:02:54.469Z,8.14
2023-12-30T02:05:22.230Z,8.36
2023-12-30T02:07:50.199Z,8.18
2023-12-30T02:10:18.058Z,8.22
2023-12-30T02:12:45.787Z,8.15
2023-12-30T02:15:14.666Z,8.06
2023-12-30T02:17:44.756Z,8.26
2023-12-30T02:20:13.248Z,8.30
2023-12-30T02:22:44.875Z,8.33
2023-12-30T02:25:13.010Z,8.32
2023-12-30T02:27:40.813Z,8.48
2023-12-30T02:30:09.252Z,8.48
2023-12-30T02:32:37.627Z,8.25
2023-12-30T02:35:06.173Z,8.28
2023-12-30T02:37:33.933Z,8.30
2023-12-30T02:40:03.363Z,8.38
2023-12-30T02:42:31.076Z,8.29
2023-12-30T02:44:58.949Z,8.32
2023-12-30T02:47:26.744Z,8.33
2023-12-30T02:49:54.618Z,8.26
2023-12-30T02:52:23.335Z,8.42
2023-12-30T02:54:51.001Z,8.47
2023-12-30T02:57:20.192Z,8.51
2023-12-30T02:59:47.919Z,8.21
2023-12-30T03:02:15.582Z,8.30
2023-12-30T03:04:43.283Z,8.43
2023-12-30T03:07:11.431Z,8.40
2023-12-30T03:09:39.158Z,8.26
2023-12-30T03:12:09.408Z,8.37
2023-12-30T03:14:38.484Z,8.48
2023-12-30T03:17:06.324Z,8.24
2023-12-30T03:19:33.964Z,8.28
2023-12-30T03:22:01.600Z,8.49
2023-12-30T03:24:29.230Z,8.30
2023-12-30T03:26:56.841Z,8.51
2023-12-30T03:29:24.845Z,8.34
2023-12-30T03:31:54.438Z,8.36
2023-12-30T03:34:22.182Z,8.38
2023-12-30T03:36:49.874Z,8.47
2023-12-30T03:39:17.460Z,8.68
2023-12-30T03:41:45.235Z,8.82
2023-12-30T03:44:13.444Z,8.84
2023-12-30T03:46:42.234Z,8.73
2023-12-30T03:49:11.389Z,8.89
2023-12-30T03:51:39.040Z,8.76
2023-12-30T03:54:07.105Z,8.87
2023-12-30T03:56:34.731Z,9.28
2023-12-30T03:59:02.361Z,9.38
2023-12-30T04:01:30.129Z,8.79
2023-12-30T04:03:57.946Z,8.94
2023-12-30T04:06:27.095Z,8.83
2023-12-30T04:08:54.864Z,8.84
2023-12-30T04:11:22.616Z,8.75
2023-12-30T04:13:50.610Z,8.67
2023-12-30T04:16:18.434Z,8.84
2023-12-30T04:18:46.050Z,8.73
2023-12-30T04:21:13.792Z,8.41
2023-12-30T04:23:42.894Z,8.33
2023-12-30T04:26:10.492Z,8.42
2023-12-30T04:28:38.407Z,8.37
2023-12-30T04:31:06.376Z,8.35
2023-12-30T04:33:34.439Z,8.10
2023-12-30T04:36:02.110Z,8.18
2023-12-30T04:38:29.971Z,8.01
2023-12-30T04:40:59.362Z,8.00
2023-12-30T04:43:27.216Z,8.07
2023-12-30T04:45:54.940Z,8.28
2023-12-30T04:48:22.857Z,8.44
2023-12-30T04:50:50.609Z,8.62
2023-12-30T04:53:18.603Z,8.28
2023-12-30T04:55:46.282Z,8.78
2023-12-30T04:58:16.289Z,8.42
2023-12-30T05:00:44.243Z,8.82
2023-12-30T05:03:12.086Z,8.68
2023-12-30T05:05:40.071Z,8.91
2023-12-30T05:08:09.159Z,9.03
2023-12-30T05:10:37.296Z,9.08
2023-12-30T05:13:06.692Z,8.89
2023-12-30T05:15:36.149Z,8.85
2023-12-30T05:18:04.221Z,8.83
2023-12-30T05:20:31.988Z,9.01
2023-12-30T05:23:01.735Z,8.91
2023-12-30T05:25:29.846Z,8.58
2023-12-30T05:27:57.757Z,8.75
2023-12-30T05:30:29.231Z,8.29
2023-12-30T05:32:58.582Z,8.44
2023-12-30T05:35:26.600Z,8.69
2023-12-30T05:37:54.445Z,8.44
2023-12-30T05:40:22.387Z,8.22
2023-12-30T05:42:50.330Z,8.21
2023-12-30T05:45:18.639Z,8.18
2023-12-30T05:47:46.650Z,8.13
2023-12-30T05:50:16.280Z,7.75
2023-12-30T05:52:44.230Z,7.76
2023-12-30T05:55:12.066Z,7.82
2023-12-30T05:57:39.769Z,7.71
2023-12-30T06:00:09.413Z,7.90
2023-12-30T06:02:37.043Z,7.79
2023-12-30T06:05:05.492Z,7.81
2023-12-30T06:07:35.936Z,7.64
2023-12-30T06:10:04.061Z,7.75
2023-12-30T06:12:32.375Z,7.68
2023-12-30T06:15:00.351Z,7.71
2023-12-30T06:17:28.237Z,7.71
2023-12-30T06:19:56.174Z,7.66
2023-12-30T06:22:24.352Z,7.61
2023-12-30T06:24:53.945Z,7.64
2023-12-30T06:27:21.970Z,7.50
2023-12-30T06:29:50.327Z,7.56
2023-12-30T06:32:20.719Z,7.61
2023-12-30T06:34:48.484Z,7.69
2023-12-30T06:37:16.214Z,7.70
2023-12-30T06:39:44.725Z,7.56
2023-12-30T06:42:14.106Z,7.54
2023-12-30T06:44:42.248Z,7.81
2023-12-30T06:47:10.143Z,7.94
2023-12-30T06:49:40.497Z,8.01
2023-12-30T06:52:08.641Z,7.88
2023-12-30T06:54:36.650Z,7.85
2023-12-30T06:57:04.592Z,7.82
2023-12-30T06:59:35.969Z,7.97
2023-12-30T07:02:03.769Z,7.70
2023-12-30T07:04:31.487Z,8.00
2023-12-30T07:06:59.230Z,7.92
2023-12-30T07:09:26.870Z,7.95
2023-12-30T07:11:54.667Z,7.83
2023-12-30T07:14:22.381Z,7.92
2023-12-30T07:16:52.155Z,8.09
2023-12-30T07:19:20.259Z,8.06
2023-12-30T07:21:49.113Z,7.96
2023-12-30T07:24:16.867Z,8.07
2023-12-30T07:26:44.761Z,8.07
2023-12-30T07:29:12.730Z,7.87
2023-12-30T07:31:40.467Z,7.88
2023-12-30T07:34:09.702Z,8.12
2023-12-30T07:36:37.598Z,8.12
2023-12-30T07:39:05.414Z,8.38
2023-12-30T07:41:33.260Z,8.24
2023-12-30T07:44:01.109Z,8.18
2023-12-30T07:46:29.313Z,8.12
2023-12-30T07:48:57.228Z,8.11
2023-12-30T07:51:26.905Z,7.89
2023-12-30T07:53:54.982Z,7.89
2023-12-30T07:56:22.828Z,7.72
2023-12-30T07:58:50.616Z,8.02
2023-12-30T08:01:19.114Z,8.07
2023-12-30T08:03:46.987Z,7.78
2023-12-30T08:06:15.208Z,7.66
2023-12-30T08:08:44.604Z,7.90
2023-12-30T08:11:12.469Z,7.91
2023-12-30T08:13:40.270Z,7.84
2023-12-30T08:16:09.320Z,7.89
2023-12-30T08:18:37.400Z,8.12
2023-12-30T08:21:05.503Z,8.21
2023-12-30T08:23:33.320Z,8.51
2023-12-30T08:26:02.510Z,8.60
2023-12-30T08:28:30.397Z,8.57
2023-12-30T08:31:00.513Z,8.66
2023-12-30T08:33:28.981Z,8.58
2023-12-30T08:35:56.909Z,8.53
2023-12-30T08:38:24.735Z,8.96
2023-12-30T08:40:52.542Z,8.97
2023-12-30T08:43:21.735Z,9.07
2023-12-30T08:45:49.484Z,9.07
2023-12-30T08:48:17.691Z,8.97
2023-12-30T08:50:46.024Z,8.72
2023-12-30T08:53:14.027Z,8.97
2023-12-30T08:55:41.870Z,8.92
2023-12-30T08:58:11.109Z,8.78
2023-12-30T09:00:42.565Z,8.69
2023-12-30T09:03:10.843Z,8.71
2023-12-30T09:05:38.990Z,8.97
2023-12-30T09:08:07.976Z,9.05
2023-12-30T09:10:36.901Z,8.78
2023-12-30T09:13:05.652Z,8.72
2023-12-30T09:15:35.703Z,8.91
2023-12-30T09:18:07.176Z,8.96
2023-12-30T09:20:35.272Z,8.75
2023-12-30T09:23:04.310Z,8.58
2023-12-30T09:25:32.478Z,8.94
2023-12-30T09:28:01.047Z,9.26
2023-12-30T09:30:29.052Z,9.49
2023-12-30T09:32:56.875Z,9.78
2023-12-30T09:35:26.203Z,9.67
2023-12-30T09:37:54.901Z,9.69
2023-12-30T09:40:23.912Z,9.93
2023-12-30T09:42:54.488Z,9.96
2023-12-30T09:45:24.282Z,9.83
2023-12-30T09:47:52.847Z,9.54
2023-12-30T09:50:20.955Z,9.58
2023-12-30T09:52:51.076Z,9.30
2023-12-30T09:55:18.931Z,9.36
2023-12-30T09:57:47.354Z,9.56
2023-12-30T10:00:20.814Z,9.61
2023-12-30T10:02:48.096Z,9.64
2023-12-30T10:05:17.319Z,9.42
2023-12-30T10:07:45.273Z,9.56
2023-12-30T10:10:14.519Z,9.52
2023-12-30T10:12:42.352Z,9.38
2023-12-30T10:15:10.619Z,9.40
2023-12-30T10:17:39.613Z,9.48
2023-12-30T10:20:09.943Z,9.73
2023-12-30T10:22:39.807Z,9.72
2023-12-30T10:25:09.715Z,10.01
2023-12-30T10:27:39.418Z,10.07
2023-12-30T10:30:09.594Z,10.00
2023-12-30T10:32:37.566Z,9.98
2023-12-30T10:35:06.193Z,10.16
2023-12-30T10:37:34.170Z,9.91
2023-12-30T10:40:03.360Z,10.11
2023-12-30T10:42:31.127Z,10.15
2023-12-30T10:45:00.307Z,10.32
2023-12-30T10:47:29.414Z,10.41
2023-12-30T10:50:05.969Z,10.46
2023-12-30T10:52:34.596Z,10.37
2023-12-30T10:55:10.390Z,10.56
2023-12-30T10:57:39.644Z,10.22
2023-12-30T11:00:11.188Z,10.14
2023-12-30T11:02:39.151Z,9.88
2023-12-30T11:05:10.557Z,9.87
2023-12-30T11:07:38.804Z,10.08
2023-12-30T11:10:18.081Z,10.25
2023-12-30T11:12:46.707Z,9.86
2023-12-30T11:15:26.768Z,9.74
2023-12-30T11:17:54.767Z,9.62
2023-12-30T11:20:31.259Z,9.78
2023-12-30T11:23:01.283Z,9.65
2023-12-30T11:25:37.435Z,9.52
2023-12-30T11:28:16.601Z,9.54
2023-12-30T11:30:47.176Z,9.54
2023-12-30T11:33:16.038Z,9.35
2023-12-30T11:35:43.871Z,9.59
2023-12-30T11:38:16.463Z,9.70
2023-12-30T11:40:50.758Z,9.46
2023-12-30T11:43:18.942Z,9.76
2023-12-30T11:45:48.292Z,9.49
2023-12-30T11:48:16.257Z,9.07
2023-12-30T11:50:44.133Z,9.19
2023-12-30T11:53:11.963Z,9.29
2023-12-30T11:55:39.990Z,9.23
2023-12-30T11:58:09.015Z,9.12
2023-12-30T12:00:37.044Z,9.08
2023-12-30T12:03:07.220Z,8.85
2023-12-30T12:05:35.318Z,9.24
2023-12-30T12:08:03.618Z,8.99
2023-12-30T12:10:31.620Z,8.87
2023-12-30T12:12:59.694Z,9.04
2023-12-30T12:15:27.699Z,8.86
2023-12-30T12:17:55.454Z,9.15
2023-12-30T12:20:25.214Z,9.08
2023-12-30T12:22:55.607Z,9.22
2023-12-30T12:25:24.340Z,9.52
2023-12-30T12:27:52.704Z,9.38
2023-12-30T12:30:20.683Z,9.74
2023-12-30T12:32:50.343Z,9.86
2023-12-30T12:35:18.959Z,9.69
2023-12-30T12:37:48.065Z,9.92
2023-12-30T12:40:17.517Z,10.25
2023-12-30T12:42:47.498Z,9.78
2023-12-30T12:45:15.979Z,9.92
2023-12-30T12:47:56.662Z,9.74
2023-12-30T12:50:24.988Z,9.81
2023-12-30T12:52:57.300Z,10.19
2023-12-30T12:55:27.522Z,9.86
2023-12-30T12:57:55.364Z,10.06
2023-12-30T13:00:25.602Z,9.76
2023-12-30T13:02:53.625Z,9.70
2023-12-30T13:05:23.911Z,9.65
2023-12-30T13:07:53.406Z,9.74
2023-12-30T13:10:49.039Z,9.51
2023-12-30T13:13:17.262Z,9.76
2023-12-30T13:15:46.225Z,9.76
2023-12-30T13:18:20.495Z,9.79
2023-12-30T13:20:49.180Z,9.88
2023-12-30T13:23:17.938Z,10.01
2023-12-30T13:25:49.684Z,10.05
2023-12-30T13:28:18.433Z,9.97
2023-12-30T13:30:47.126Z,10.30
2023-12-30T13:33:19.494Z,9.89
2023-12-30T13:35:59.436Z,9.96
2023-12-30T13:38:31.791Z,9.63
2023-12-30T13:41:05.310Z,9.75
2023-12-30T13:43:34.142Z,9.76
2023-12-30T13:46:24.120Z,9.61
2023-12-30T13:49:09.201Z,9.65
2023-12-30T13:51:38.492Z,9.64
2023-12-30T13:54:07.063Z,9.46
2023-12-30T13:56:39.504Z,9.58
2023-12-30T13:59:10.571Z,9.94
2023-12-30T14:01:40.380Z,9.37
2023-12-30T14:04:08.987Z,9.68
2023-12-30T14:06:40.476Z,9.56
2023-12-30T14:09:25.539Z,9.79
2023-12-30T14:11:59.391Z,9.75
2023-12-30T14:14:30.744Z,9.68
2023-12-30T14:17:01.110Z,9.54
2023-12-30T14:19:28.952Z,10.04
2023-12-30T14:21:57.034Z,9.98
2023-12-30T14:24:24.988Z,9.76
2023-12-30T14:26:56.466Z,9.81
2023-12-30T14:29:24.279Z,9.93
2023-12-30T14:31:52.057Z,9.56
2023-12-30T14:34:20.189Z,9.51
2023-12-30T14:36:49.138Z,9.46
2023-12-30T14:39:17.200Z,9.49
2023-12-30T14:41:45.049Z,9.72
2023-12-30T14:44:14.820Z,9.80
2023-12-30T14:46:42.661Z,9.98
2023-12-30T14:49:10.640Z,10.01
2023-12-30T14:51:38.393Z,9.78
2023-12-30T14:54:06.488Z,9.97
2023-12-30T14:56:34.903Z,9.99
2023-12-30T14:59:03.030Z,9.79
2023-12-30T15:01:33.003Z,9.51
2023-12-30T15:04:03.395Z,9.45
2023-12-30T15:06:31.942Z,9.55
2023-12-30T15:09:00.521Z,9.78
2023-12-30T15:11:29.549Z,9.75
2023-12-30T15:13:57.641Z,9.50
2023-12-30T15:16:25.489Z,9.36
2023-12-30T15:18:54.890Z,9.39
2023-12-30T15:21:22.709Z,9.28
2023-12-30T15:23:50.303Z,9.26
2023-12-30T15:26:18.453Z,9.37
2023-12-30T15:28:46.243Z,9.15
2023-12-30T15:31:14.136Z,9.10
2023-12-30T15:33:42.004Z,8.97
2023-12-30T15:36:11.547Z,9.06
2023-12-30T15:38:39.633Z,8.97
2023-12-30T15:41:07.389Z,8.96
2023-12-30T15:43:35.306Z,9.13
2023-12-30T15:46:03.556Z,9.05
2023-12-30T15:48:31.401Z,9.18
2023-12-30T15:50:59.142Z,9.12
2023-12-30T15:53:28.192Z,9.28
2023-12-30T15:55:55.935Z,9.31
2023-12-30T15:58:23.646Z,9.16
2023-12-30T16:00:52.576Z,9.32
2023-12-30T16:03:20.936Z,9.20
2023-12-30T16:05:49.373Z,9.32
2023-12-30T16:08:17.583Z,9.34
2023-12-30T16:10:47.192Z,9.31
2023-12-30T16:13:15.044Z,9.18
2023-12-30T16:15:44.145Z,9.42
2023-12-30T16:18:11.975Z,9.46
2023-12-30T16:20:40.226Z,9.23
2023-12-30T16:23:09.209Z,9.19
2023-12-30T16:25:37.545Z,9.12
2023-12-30T16:28:07.389Z,9.09
2023-12-30T16:30:35.033Z,9.21
2023-12-30T16:33:03.231Z,9.02
2023-12-30T16:35:31.350Z,9.01
2023-12-30T16:37:59.104Z,9.11
2023-12-30T16:40:28.810Z,9.22
2023-12-30T16:42:56.457Z,9.04
2023-12-30T16:45:25.778Z,8.82
2023-12-30T16:47:53.651Z,8.82
2023-12-30T16:50:21.404Z,8.87
2023-12-30T16:52:50.381Z,8.83
2023-12-30T16:55:32.490Z,8.93
2023-12-30T16:58:00.568Z,8.84
2023-12-30T17:00:29.850Z,8.89
2023-12-30T17:02:57.504Z,8.77
2023-12-30T17:05:25.224Z,8.76
2023-12-30T17:07:52.962Z,8.80
2023-12-30T17:10:21.053Z,8.86
2023-12-30T17:12:48.817Z,8.84
2023-12-30T17:15:16.892Z,8.76
2023-12-30T17:17:45.967Z,8.74
2023-12-30T17:20:16.822Z,8.65
2023-12-30T17:22:44.452Z,8.54
2023-12-30T17:25:12.143Z,8.52
2023-12-30T17:27:39.862Z,8.57
2023-12-30T17:30:09.107Z,8.60
2023-12-30T17:32:37.148Z,8.59
2023-12-30T17:35:07.037Z,8.54
2023-12-30T17:37:35.080Z,8.50
2023-12-30T17:40:04.439Z,8.44
2023-12-30T17:42:32.057Z,8.53
2023-12-30T17:44:59.969Z,8.50
2023-12-30T17:47:27.692Z,8.43
2023-12-30T17:49:55.443Z,8.33
2023-12-30T17:52:24.602Z,8.33
2023-12-30T17:54:52.338Z,8.50
2023-12-30T17:57:20.156Z,8.30
2023-12-30T17:59:47.842Z,8.34
2023-12-30T18:02:19.519Z,8.54
2023-12-30T18:04:47.739Z,8.52
2023-12-30T18:07:17.034Z,8.64
2023-12-30T18:09:48.170Z,8.48
2023-12-30T18:12:16.348Z,8.46
2023-12-30T18:14:44.196Z,8.58
2023-12-30T18:17:11.968Z,8.50
2023-12-30T18:19:42.206Z,8.42
2023-12-30T18:22:09.906Z,8.57
2023-12-30T18:24:37.702Z,8.74
2023-12-30T18:27:06.860Z,8.75
2023-12-30T18:29:34.886Z,8.51
2023-12-30T18:32:03.275Z,8.54
2023-12-30T18:34:31.167Z,8.69
2023-12-30T18:36:58.911Z,8.80
2023-12-30T18:39:26.735Z,8.71
2023-12-30T18:41:54.567Z,8.54
2023-12-30T18:44:23.668Z,8.40
2023-12-30T18:46:51.502Z,8.68
2023-12-30T18:49:20.547Z,8.64
2023-12-30T18:51:48.320Z,8.86
2023-12-30T18:54:16.002Z,8.73
2023-12-30T18:56:44.811Z,8.83
2023-12-30T18:59:12.649Z,8.77
2023-12-30T19:01:43.657Z,8.85
2023-12-30T19:04:11.859Z,8.81
2023-12-30T19:06:39.884Z,8.79
2023-12-30T19:09:08.549Z,8.79
2023-12-30T19:11:36.805Z,8.72
2023-12-30T19:14:04.544Z,8.74
2023-12-30T19:16:34.713Z,8.86
2023-12-30T19:19:04.013Z,8.88
2023-12-30T19:21:32.421Z,8.94
2023-12-30T19:24:01.585Z,9.09
2023-12-30T19:26:30.380Z,9.21
2023-12-30T19:28:58.470Z,9.27
2023-12-30T19:31:26.244Z,9.26
2023-12-30T19:33:54.020Z,9.09
2023-12-30T19:36:24.221Z,9.13
2023-12-30T19:38:54.467Z,9.18
2023-12-30T19:41:22.076Z,9.14
2023-12-30T19:43:52.047Z,8.98
2023-12-30T19:46:19.896Z,9.07
2023-12-30T19:48:47.630Z,9.03
2023-12-30T19:51:15.449Z,8.89
2023-12-30T19:53:44.683Z,9.20
2023-12-30T19:56:12.778Z,9.19
2023-12-30T19:58:40.433Z,9.21
2023-12-30T20:01:08.567Z,8.99
2023-12-30T20:03:39.525Z,8.86
2023-12-30T20:06:12.379Z,8.98
2023-12-30T20:08:40.370Z,8.97
2023-12-30T20:11:10.637Z,8.97
2023-12-30T20:13:39.500Z,8.89
2023-12-30T20:16:09.187Z,8.99
2023-12-30T20:18:38.511Z,8.91
2023-12-30T20:21:07.204Z,8.82
2023-12-30T20:23:35.864Z,8.94
2023-12-30T20:26:04.864Z,8.79
2023-12-30T20:28:34.048Z,8.86
2023-12-30T20:31:02.245Z,8.97
2023-12-30T20:33:30.161Z,8.90
2023-12-30T20:35:57.957Z,8.97
2023-12-30T20:38:25.633Z,9.05
2023-12-30T20:40:53.412Z,9.04
2023-12-30T20:43:21.272Z,8.90
2023-12-30T20:45:50.867Z,8.80
2023-12-30T20:48:18.674Z,8.92
2023-12-30T20:50:46.606Z,8.99
2023-12-30T20:53:14.367Z,8.78
2023-12-30T20:55:42.081Z,8.98
2023-12-30T20:58:09.867Z,8.99
2023-12-30T21:00:39.648Z,9.02
2023-12-30T21:03:09.755Z,9.01
2023-12-30T21:05:40.453Z,9.04
2023-12-30T21:08:08.468Z,8.94
2023-12-30T21:10:36.214Z,8.94
2023-12-30T21:13:04.386Z,9.08
2023-12-30T21:15:32.541Z,9.01
2023-12-30T21:18:00.375Z,9.16
2023-12-30T21:20:29.431Z,9.02
2023-12-30T21:22:57.291Z,9.06
2023-12-30T21:25:27.453Z,9.25
2023-12-30T21:27:55.621Z,9.23
2023-12-30T21:30:25.134Z,9.33
2023-12-30T21:32:53.370Z,9.35
2023-12-30T21:35:21.214Z,9.27
2023-12-30T21:37:51.566Z,9.30
2023-12-30T21:40:20.556Z,9.17
2023-12-30T21:42:48.246Z,9.09
2023-12-30T21:45:16.079Z,9.23
2023-12-30T21:47:44.024Z,9.25
2023-12-30T21:50:12.022Z,9.27
2023-12-30T21:52:39.906Z,9.27
2023-12-30T21:55:09.967Z,9.25
2023-12-30T21:57:37.703Z,9.23
2023-12-30T22:00:05.888Z,9.05
2023-12-30T22:02:35.076Z,9.14
2023-12-30T22:05:04.062Z,9.11
2023-12-30T22:07:31.989Z,9.09
2023-12-30T22:10:00.909Z,9.04
2023-12-30T22:12:32.426Z,9.04
2023-12-30T22:15:00.629Z,9.05
2023-12-30T22:17:28.543Z,9.13
2023-12-30T22:19:57.418Z,9.07
2023-12-30T22:22:25.228Z,9.13
2023-12-30T22:24:53.229Z,9.17
2023-12-30T22:27:21.557Z,9.21
2023-12-30T22:29:50.583Z,9.01
2023-12-30T22:32:18.224Z,9.19
2023-12-30T22:34:45.944Z,9.22
2023-12-30T22:37:15.761Z,9.31
2023-12-30T22:39:45.484Z,9.26
2023-12-30T22:42:13.469Z,9.22
2023-12-30T22:44:41.501Z,9.27
2023-12-30T22:47:11.303Z,9.22
2023-12-30T22:49:39.138Z,9.33
2023-12-30T22:52:09.146Z,9.30
2023-12-30T22:54:39.911Z,9.21
2023-12-30T22:57:09.581Z,9.18
2023-12-30T22:59:37.759Z,9.19
2023-12-30T23:02:06.482Z,9.21
2023-12-30T23:04:35.929Z,9.21
2023-12-30T23:07:03.732Z,9.22
2023-12-30T23:09:32.023Z,9.12
2023-12-30T23:11:59.689Z,9.18
2023-12-30T23:14:27.321Z,9.12
2023-12-30T23:16:55.018Z,9.16
2023-12-30T23:19:22.728Z,9.18
2023-12-30T23:21:51.837Z,9.13
2023-12-30T23:24:19.590Z,9.11
2023-12-30T23:26:47.317Z,9.14
2023-12-30T23:29:15.003Z,9.20
2023-12-30T23:31:43.034Z,9.13
2023-12-30T23:34:10.942Z,9.12
2023-12-30T23:36:38.762Z,8.93
2023-12-30T23:39:08.104Z,9.03
2023-12-30T23:41:36.231Z,8.94
2023-12-30T23:44:03.923Z,8.95
2023-12-30T23:46:31.902Z,8.99
2023-12-30T23:48:59.766Z,9.00
2023-12-30T23:51:27.902Z,8.96
2023-12-30T23:53:55.850Z,8.98
2023-12-30T23:56:27.189Z,8.87
2023-12-30T23:58:55.128Z,8.85
